F/V Fleur Des Vagues — FPEJ — position and weather

sailwx.info

Track history (hours):
 
Tides and Currents Weather Stations Pressure Air Temp Water Temp Dewpoint Dewpoint Depression Visibility Wind Speed Wind Dir Waves Ship Positions

F/V Fleur Des Vagues

Last reported at 2015-Aug-13 13:29 UTC. Time now 2015-Aug-28 19:17 UTC.
Position N 46°30' W 001°47'.
Warning: this ship's position is 15 days out of date.

Length 16 m.

Type: Fishing. MMSI: 227893000.

Date/timePositionNaut miles runAvg speedWind from/ knotsBaromVisibWave heightAir tempDewpointWater temp
2015-Aug-13 13:29N 46°30' W 001°47'0 0.0
2015-Aug-13 12:33N 46°30' W 001°47'1 1.2
2015-Aug-13 11:33N 46°29' W 001°48'9 8.9
2015-Aug-13 10:33N 46°33' W 001°60'2 1.7
2015-Aug-13 09:33N 46°34' W 002°02'0 0.2
2015-Aug-13 08:33N 46°34' W 002°01'2 2.3
2015-Aug-13 07:33N 46°34' W 002°05'0 0.3
2015-Aug-13 06:33N 46°35' W 002°05'1 0.5
2015-Aug-13 05:33N 46°35' W 002°04'1 0.6
2015-Aug-13 04:23N 46°35' W 002°03'3 3.4
2015-Aug-13 03:31N 46°33' W 001°59'0 0.2
2015-Aug-13 02:33N 46°34' W 001°59'6 5.5
2015-Aug-13 01:32N 46°30' W 001°53'4 0.8
2015-Aug-12 20:19N 46°30' W 001°47'0 0.0
2015-Aug-12 19:33N 46°30' W 001°47'0 0.0
2015-Aug-12 18:33N 46°30' W 001°47'0 0.0
2015-Aug-12 17:33N 46°30' W 001°47'0 0.0
2015-Aug-12 16:33N 46°30' W 001°47'0 0.0
2015-Aug-12 15:33N 46°30' W 001°47'0 0.0
2015-Aug-12 14:33N 46°30' W 001°47'0 0.0
2015-Aug-12 13:33N 46°30' W 001°47'4 3.7
2015-Aug-12 12:33N 46°30' W 001°53'6 6.3
2015-Aug-12 11:33N 46°34' W 001°60'1 1.2
2015-Aug-12 10:33N 46°34' W 002°02'0 0.2
2015-Aug-12 09:33N 46°34' W 002°01'2 2.3
2015-Aug-12 08:33N 46°35' W 002°04'1 1.5
2015-Aug-12 07:33N 46°34' W 002°02'1 1.3
2015-Aug-12 06:33N 46°35' W 002°04'0 0.3
2015-Aug-12 05:33N 46°35' W 002°05'2 2.3
2015-Aug-12 04:33N 46°34' W 002°01'2 2.0
2015-Aug-12 03:33N 46°33' W 001°59'0 0.3
2015-Aug-12 02:33N 46°33' W 001°58'0 0.3
2015-Aug-12 01:33N 46°34' W 001°59'3 3.2
2015-Aug-12 00:33N 46°31' W 001°55'6 5.9
2015-Aug-11 23:33N 46°30' W 001°47'0 0.0
2015-Aug-11 22:33N 46°30' W 001°47'0 0.0
2015-Aug-11 21:33N 46°30' W 001°47'0 0.0
2015-Aug-11 20:33N 46°30' W 001°47'0 0.0
2015-Aug-11 19:33N 46°30' W 001°47'0 0.0
2015-Aug-11 18:33N 46°30' W 001°47'0 0.0
2015-Aug-11 17:33N 46°30' W 001°47'0 0.0
2015-Aug-11 16:33N 46°30' W 001°47'0 0.0
2015-Aug-11 15:33N 46°30' W 001°47'0 0.0
2015-Aug-11 14:33N 46°30' W 001°47'2 1.6
2015-Aug-11 13:33N 46°29' W 001°49'8 8.4
2015-Aug-11 12:33N 46°34' W 001°59'1 1.3
2015-Aug-11 11:33N 46°34' W 002°01'3 2.9
2015-Aug-11 10:33N 46°35' W 002°05'1 1.5
2015-Aug-11 09:33N 46°34' W 002°03'1 0.8
2015-Aug-11 08:33N 46°35' W 002°01'1 1.0
2015-Aug-11 07:33N 46°34' W 002°01'0 0.4
2015-Aug-11 06:33N 46°34' W 002°02'0 0.2
2015-Aug-11 05:34N 46°34' W 002°02'1 0.6
2015-Aug-11 04:34N 46°33' W 002°01'2 1.7
2015-Aug-11 03:33N 46°34' W 001°59'1 0.7
2015-Aug-11 02:33N 46°33' W 001°58'0 0.3
2015-Aug-11 01:33N 46°33' W 001°58'4 3.8
2015-Aug-11 00:33N 46°30' W 001°54'5 5.0
2015-Aug-10 23:33N 46°30' W 001°47'0 0.0
2015-Aug-10 22:33N 46°30' W 001°47'0 0.0
2015-Aug-10 21:33N 46°30' W 001°47'0 0.0
2015-Aug-10 20:33N 46°30' W 001°47'0 0.0
2015-Aug-10 19:33N 46°30' W 001°47'0 0.0
2015-Aug-10 18:33N 46°30' W 001°47'0 0.0
2015-Aug-10 17:33N 46°30' W 001°47'0 0.0
2015-Aug-10 16:33N 46°30' W 001°47'0 0.0
2015-Aug-10 15:33N 46°30' W 001°47'0 0.0
2015-Aug-10 14:33N 46°30' W 001°47'0 0.0
2015-Aug-10 13:33N 46°30' W 001°47'7 6.6
2015-Aug-10 12:33N 46°31' W 001°56'4 3.6
2015-Aug-10 11:33N 46°34' W 002°01'1 1.2
2015-Aug-10 10:33N 46°34' W 001°59'1 0.7
2015-Aug-10 09:33N 46°33' W 001°58'1 0.9
2015-Aug-10 08:33N 46°34' W 001°59'1 1.0
2015-Aug-10 07:33N 46°33' W 001°58'1 1.0
2015-Aug-10 06:34N 46°34' W 001°59'2 1.5
2015-Aug-10 05:33N 46°33' W 001°58'1 1.4
2015-Aug-10 04:34N 46°33' W 001°59'1 1.5
2015-Aug-10 03:33N 46°32' W 001°58'1 1.0
2015-Aug-10 02:34N 46°33' W 001°59'1 0.9
2015-Aug-10 01:33N 46°34' W 001°60'2 1.7
2015-Aug-10 00:33N 46°33' W 001°58'7 6.9
2015-Aug-09 23:33N 46°29' W 001°50'2 2.1
2015-Aug-09 22:33N 46°30' W 001°47'0 0.0
2015-Aug-09 21:33N 46°30' W 001°47'0 0.0
2015-Aug-09 20:33N 46°30' W 001°47'0 0.0
2015-Aug-09 19:33N 46°30' W 001°47'0 0.0
2015-Aug-09 18:33N 46°30' W 001°47'0 0.0
2015-Aug-09 17:33N 46°30' W 001°47'0 0.0
2015-Aug-09 16:33N 46°30' W 001°47'0 0.0
2015-Aug-09 15:33N 46°30' W 001°47'0 0.0
2015-Aug-09 14:33N 46°30' W 001°47'0 0.0
2015-Aug-09 13:33N 46°30' W 001°47'0 0.0
2015-Aug-09 12:33N 46°30' W 001°47'5 5.0
2015-Aug-09 11:33N 46°30' W 001°54'5 5.1
2015-Aug-09 10:33N 46°34' W 001°59'1 1.4
2015-Aug-09 09:33N 46°33' W 001°58'4 4.2
2015-Aug-09 08:33N 46°34' W 002°04'0 0.4
2015-Aug-09 07:33N 46°34' W 002°03'0 0.2
2015-Aug-09 06:33N 46°34' W 002°04'1 0.9
2015-Aug-09 05:33N 46°34' W 002°05'1 0.9
2015-Aug-09 04:33N 46°34' W 002°03'1 0.5
2015-Aug-09 03:34N 46°35' W 002°03'1 0.7
2015-Aug-09 02:33N 46°34' W 002°03'1 1.0
2015-Aug-09 01:33N 46°34' W 002°01'0 0.5
2015-Aug-09 00:33N 46°34' W 002°01'0 0.0
2015-Aug-08 23:33N 46°34' W 002°02'0 0.0
2015-Aug-08 22:33N 46°34' W 002°02'0 0.0
2015-Aug-08 21:33N 46°34' W 002°02'0 0.0
2015-Aug-08 20:33N 46°34' W 002°01'0 0.0
2015-Aug-08 19:33N 46°34' W 002°01'0 0.0
2015-Aug-08 18:33N 46°34' W 002°01'0 0.0
2015-Aug-08 17:33N 46°34' W 002°01'0 0.0
2015-Aug-08 16:33N 46°34' W 002°01'0 0.1
2015-Aug-08 15:33N 46°34' W 002°02'0 0.1
2015-Aug-08 14:33N 46°34' W 002°02'0 0.0
2015-Aug-08 13:33N 46°34' W 002°02'1 0.5
2015-Aug-08 12:33N 46°34' W 002°01'2 2.0
2015-Aug-08 11:33N 46°34' W 002°04'0 0.2
2015-Aug-08 10:33N 46°34' W 002°04'0 0.3
2015-Aug-08 09:32N 46°34' W 002°05'0 0.5
2015-Aug-08 08:33N 46°34' W 002°04'0 0.4
2015-Aug-08 07:33N 46°34' W 002°04'0 0.2
2015-Aug-08 06:30N 46°34' W 002°03'0 0.5
2015-Aug-08 05:33N 46°34' W 002°04'0 0.5
2015-Aug-08 04:33N 46°35' W 002°04'1 0.7
2015-Aug-08 03:33N 46°35' W 002°03'1 1.0
2015-Aug-08 02:33N 46°34' W 002°02'8 8.4
2015-Aug-08 01:33N 46°29' W 001°52'3 3.4
2015-Aug-08 00:33N 46°30' W 001°47'0 0.0
2015-Aug-07 23:33N 46°30' W 001°47'0 0.0
2015-Aug-07 22:33N 46°30' W 001°47'0 0.0
2015-Aug-07 21:33N 46°30' W 001°47'0 0.0
2015-Aug-07 20:33N 46°30' W 001°47'0 0.0
2015-Aug-07 19:33N 46°30' W 001°47'0 0.0
2015-Aug-07 18:33N 46°30' W 001°47'0 0.0
2015-Aug-07 17:33N 46°30' W 001°47'0 0.0
2015-Aug-07 16:33N 46°30' W 001°47'0 0.0
2015-Aug-07 15:33N 46°30' W 001°47'0 0.0
2015-Aug-07 14:33N 46°30' W 001°47'0 0.0
2015-Aug-07 13:33N 46°30' W 001°47'3 3.1
2015-Aug-07 12:33N 46°29' W 001°51'9 9.2
2015-Aug-07 11:34N 46°34' W 002°02'1 1.4
2015-Aug-07 10:33N 46°35' W 002°04'1 0.9
2015-Aug-07 09:33N 46°35' W 002°06'1 0.7
2015-Aug-07 08:33N 46°34' W 002°05'0 0.3
2015-Aug-07 07:33N 46°34' W 002°04'0 0.3
2015-Aug-07 06:33N 46°35' W 002°05'1 0.4
2015-Aug-07 04:32N 46°34' W 002°04'0 0.4
2015-Aug-07 03:33N 46°34' W 002°03'0 0.3
2015-Aug-07 02:33N 46°34' W 002°03'1 1.5
2015-Aug-07 01:33N 46°33' W 002°02'9 8.6
2015-Aug-07 00:33N 46°29' W 001°51'3 3.1
2015-Aug-06 23:33N 46°30' W 001°47'0 0.0
2015-Aug-06 22:33N 46°30' W 001°47'0 0.0
2015-Aug-06 21:33N 46°30' W 001°47'0 0.0
2015-Aug-06 20:33N 46°30' W 001°47'0 0.0
2015-Aug-06 19:33N 46°30' W 001°47'0 0.0
2015-Aug-06 18:33N 46°30' W 001°47'0 0.0
2015-Aug-06 17:33N 46°30' W 001°47'0 0.0
2015-Aug-06 16:33N 46°30' W 001°47'0 0.0
2015-Aug-06 15:33N 46°30' W 001°47'3 3.3
2015-Aug-06 14:33N 46°29' W 001°52'9 8.9
2015-Aug-06 13:33N 46°33' W 002°03'0 0.3
2015-Aug-06 12:33N 46°34' W 002°03'1 1.2
2015-Aug-06 11:34N 46°34' W 002°05'0 0.2
2015-Aug-06 10:33N 46°34' W 002°05'0 0.4
2015-Aug-06 09:33N 46°34' W 002°04'1 0.8
2015-Aug-06 08:33N 46°35' W 002°04'0 0.1
2015-Aug-06 07:33N 46°35' W 002°04'0 0.2
2015-Aug-06 06:33N 46°35' W 002°05'1 0.4
2015-Aug-06 04:23N 46°35' W 002°03'0 0.6
2015-Aug-06 03:33N 46°34' W 002°03'1 0.7
2015-Aug-06 02:32N 46°35' W 002°04'1 1.0
2015-Aug-06 01:33N 46°34' W 002°03'9 8.9
2015-Aug-06 00:33N 46°29' W 001°52'3 3.3
2015-Aug-05 23:33N 46°30' W 001°47'0 0.0
2015-Aug-05 22:33N 46°30' W 001°47'0 0.0
2015-Aug-05 21:33N 46°30' W 001°47'0 0.0
2015-Aug-05 20:33N 46°30' W 001°47'0 0.0
2015-Aug-05 19:33N 46°30' W 001°47'0 0.0
2015-Aug-05 18:33N 46°30' W 001°47'0 0.0
2015-Aug-05 17:33N 46°30' W 001°47'0 0.0
2015-Aug-05 16:33N 46°30' W 001°47'0 0.0
2015-Aug-05 15:33N 46°30' W 001°47'0 0.0
2015-Aug-05 14:33N 46°30' W 001°47'0 0.0
2015-Aug-05 13:33N 46°30' W 001°47'0 0.2
2015-Aug-05 12:33N 46°30' W 001°47'7 6.7
2015-Aug-05 11:33N 46°31' W 001°57'6 6.3
2015-Aug-05 10:33N 46°34' W 002°05'0 0.4
2015-Aug-05 09:33N 46°35' W 002°05'1 1.0
2015-Aug-05 08:33N 46°34' W 002°04'1 0.6
2015-Aug-05 07:33N 46°35' W 002°05'1 0.8
2015-Aug-05 06:33N 46°34' W 002°04'0 0.3
2015-Aug-05 05:33N 46°34' W 002°04'0 0.3
2015-Aug-05 04:33N 46°35' W 002°04'0 0.5
2015-Aug-05 03:32N 46°34' W 002°04'1 0.6
2015-Aug-05 02:33N 46°35' W 002°04'1 0.6
2015-Aug-05 01:33N 46°35' W 002°03'1 0.5
2015-Aug-05 00:29N 46°34' W 002°03'1 0.6
2015-Aug-04 23:33N 46°34' W 002°02'9 8.9
2015-Aug-04 22:33N 46°29' W 001°52'3 3.3
2015-Aug-04 21:33N 46°30' W 001°47'0 0.0
2015-Aug-04 20:33N 46°30' W 001°47'0 0.0
2015-Aug-04 19:33N 46°30' W 001°47'0 0.0
2015-Aug-04 18:33N 46°30' W 001°47'0 0.0
2015-Aug-04 17:33N 46°30' W 001°47'0 0.0
2015-Aug-04 16:33N 46°30' W 001°47'0 0.0
2015-Aug-04 15:33N 46°30' W 001°47'0 0.0
2015-Aug-04 14:33N 46°30' W 001°47'1 0.8
2015-Aug-04 13:33N 46°29' W 001°47'6 5.5
2015-Aug-04 12:33N 46°26' W 001°54'5 5.3
2015-Aug-04 11:33N 46°29' W 001°47'7 6.7
2015-Aug-04 10:33N 46°31' W 001°56'6 6.4
2015-Aug-04 09:33N 46°35' W 002°04'1 0.7
2015-Aug-04 08:33N 46°34' W 002°04'1 0.6
2015-Aug-04 07:31N 46°35' W 002°04'0 0.2
2015-Aug-04 06:32N 46°35' W 002°04'0 0.4
2015-Aug-04 05:32N 46°35' W 002°05'0 0.2
2015-Aug-04 04:33N 46°34' W 002°05'0 0.3
2015-Aug-04 03:33N 46°35' W 002°04'1 1.3
2015-Aug-04 02:33N 46°34' W 002°03'0 0.5
2015-Aug-04 01:33N 46°34' W 002°03'0 0.4
2015-Aug-04 00:34N 46°34' W 002°02'0 0.2
2015-Aug-03 23:33N 46°34' W 002°02'3 3.4
2015-Aug-03 22:33N 46°32' W 001°59'8 7.8
2015-Aug-03 21:33N 46°28' W 001°49'2 1.9
2015-Aug-03 20:33N 46°30' W 001°47'0 0.0
2015-Aug-03 19:33N 46°30' W 001°47'0 0.0
2015-Aug-03 18:33N 46°30' W 001°47'0 0.0
2015-Aug-03 17:33N 46°30' W 001°47'0 0.0
2015-Aug-03 16:33N 46°30' W 001°47'0 0.0
2015-Aug-03 15:33N 46°30' W 001°47'0 0.0
2015-Aug-03 14:33N 46°30' W 001°47'0 0.0
2015-Aug-03 13:33N 46°30' W 001°47'  
Track history (hours):
 
Tides and Currents Weather Stations Pressure Air Temp Water Temp Dewpoint Dewpoint Depression Visibility Wind Speed Wind Dir Waves Ship Positions

F/V Fleur Des Vagues

Last reported at 2015-Aug-13 13:29 UTC. Time now 2015-Aug-28 19:17 UTC.
Position N 46°30' W 001°47'.
Warning: this ship's position is 15 days out of date.

Length 16 m.

Type: Fishing. MMSI: 227893000.

Date/timePositionNaut miles runAvg speedWind from/ knotsBaromVisibWave heightAir tempDewpointWater temp
2015-Aug-13 13:29N 46°30' W 001°47'0 0.0
2015-Aug-13 12:33N 46°30' W 001°47'1 1.2
2015-Aug-13 11:33N 46°29' W 001°48'9 8.9
2015-Aug-13 10:33N 46°33' W 001°60'2 1.7
2015-Aug-13 09:33N 46°34' W 002°02'0 0.2
2015-Aug-13 08:33N 46°34' W 002°01'2 2.3
2015-Aug-13 07:33N 46°34' W 002°05'0 0.3
2015-Aug-13 06:33N 46°35' W 002°05'1 0.5
2015-Aug-13 05:33N 46°35' W 002°04'1 0.6
2015-Aug-13 04:23N 46°35' W 002°03'3 3.4
2015-Aug-13 03:31N 46°33' W 001°59'0 0.2
2015-Aug-13 02:33N 46°34' W 001°59'6 5.5
2015-Aug-13 01:32N 46°30' W 001°53'4 0.8
2015-Aug-12 20:19N 46°30' W 001°47'0 0.0
2015-Aug-12 19:33N 46°30' W 001°47'0 0.0
2015-Aug-12 18:33N 46°30' W 001°47'0 0.0
2015-Aug-12 17:33N 46°30' W 001°47'0 0.0
2015-Aug-12 16:33N 46°30' W 001°47'0 0.0
2015-Aug-12 15:33N 46°30' W 001°47'0 0.0
2015-Aug-12 14:33N 46°30' W 001°47'0 0.0
2015-Aug-12 13:33N 46°30' W 001°47'4 3.7
2015-Aug-12 12:33N 46°30' W 001°53'6 6.3
2015-Aug-12 11:33N 46°34' W 001°60'1 1.2
2015-Aug-12 10:33N 46°34' W 002°02'0 0.2
2015-Aug-12 09:33N 46°34' W 002°01'2 2.3
2015-Aug-12 08:33N 46°35' W 002°04'1 1.5
2015-Aug-12 07:33N 46°34' W 002°02'1 1.3
2015-Aug-12 06:33N 46°35' W 002°04'0 0.3
2015-Aug-12 05:33N 46°35' W 002°05'2 2.3
2015-Aug-12 04:33N 46°34' W 002°01'2 2.0
2015-Aug-12 03:33N 46°33' W 001°59'0 0.3
2015-Aug-12 02:33N 46°33' W 001°58'0 0.3
2015-Aug-12 01:33N 46°34' W 001°59'3 3.2
2015-Aug-12 00:33N 46°31' W 001°55'6 5.9
2015-Aug-11 23:33N 46°30' W 001°47'0 0.0
2015-Aug-11 22:33N 46°30' W 001°47'0 0.0
2015-Aug-11 21:33N 46°30' W 001°47'0 0.0
2015-Aug-11 20:33N 46°30' W 001°47'0 0.0
2015-Aug-11 19:33N 46°30' W 001°47'0 0.0
2015-Aug-11 18:33N 46°30' W 001°47'0 0.0
2015-Aug-11 17:33N 46°30' W 001°47'0 0.0
2015-Aug-11 16:33N 46°30' W 001°47'0 0.0
2015-Aug-11 15:33N 46°30' W 001°47'0 0.0
2015-Aug-11 14:33N 46°30' W 001°47'2 1.6
2015-Aug-11 13:33N 46°29' W 001°49'8 8.4
2015-Aug-11 12:33N 46°34' W 001°59'1 1.3
2015-Aug-11 11:33N 46°34' W 002°01'3 2.9
2015-Aug-11 10:33N 46°35' W 002°05'1 1.5
2015-Aug-11 09:33N 46°34' W 002°03'1 0.8
2015-Aug-11 08:33N 46°35' W 002°01'1 1.0
2015-Aug-11 07:33N 46°34' W 002°01'0 0.4
2015-Aug-11 06:33N 46°34' W 002°02'0 0.2
2015-Aug-11 05:34N 46°34' W 002°02'1 0.6
2015-Aug-11 04:34N 46°33' W 002°01'2 1.7
2015-Aug-11 03:33N 46°34' W 001°59'1 0.7
2015-Aug-11 02:33N 46°33' W 001°58'0 0.3
2015-Aug-11 01:33N 46°33' W 001°58'4 3.8
2015-Aug-11 00:33N 46°30' W 001°54'5 5.0
2015-Aug-10 23:33N 46°30' W 001°47'0 0.0
2015-Aug-10 22:33N 46°30' W 001°47'0 0.0
2015-Aug-10 21:33N 46°30' W 001°47'0 0.0
2015-Aug-10 20:33N 46°30' W 001°47'0 0.0
2015-Aug-10 19:33N 46°30' W 001°47'0 0.0
2015-Aug-10 18:33N 46°30' W 001°47'0 0.0
2015-Aug-10 17:33N 46°30' W 001°47'0 0.0
2015-Aug-10 16:33N 46°30' W 001°47'0 0.0
2015-Aug-10 15:33N 46°30' W 001°47'0 0.0
2015-Aug-10 14:33N 46°30' W 001°47'0 0.0
2015-Aug-10 13:33N 46°30' W 001°47'7 6.6
2015-Aug-10 12:33N 46°31' W 001°56'4 3.6
2015-Aug-10 11:33N 46°34' W 002°01'1 1.2
2015-Aug-10 10:33N 46°34' W 001°59'1 0.7
2015-Aug-10 09:33N 46°33' W 001°58'1 0.9
2015-Aug-10 08:33N 46°34' W 001°59'1 1.0
2015-Aug-10 07:33N 46°33' W 001°58'1 1.0
2015-Aug-10 06:34N 46°34' W 001°59'2 1.5
2015-Aug-10 05:33N 46°33' W 001°58'1 1.4
2015-Aug-10 04:34N 46°33' W 001°59'1 1.5
2015-Aug-10 03:33N 46°32' W 001°58'1 1.0
2015-Aug-10 02:34N 46°33' W 001°59'1 0.9
2015-Aug-10 01:33N 46°34' W 001°60'2 1.7
2015-Aug-10 00:33N 46°33' W 001°58'7 6.9
2015-Aug-09 23:33N 46°29' W 001°50'2 2.1
2015-Aug-09 22:33N 46°30' W 001°47'0 0.0
2015-Aug-09 21:33N 46°30' W 001°47'0 0.0
2015-Aug-09 20:33N 46°30' W 001°47'0 0.0
2015-Aug-09 19:33N 46°30' W 001°47'0 0.0
2015-Aug-09 18:33N 46°30' W 001°47'0 0.0
2015-Aug-09 17:33N 46°30' W 001°47'0 0.0
2015-Aug-09 16:33N 46°30' W 001°47'0 0.0
2015-Aug-09 15:33N 46°30' W 001°47'0 0.0
2015-Aug-09 14:33N 46°30' W 001°47'0 0.0
2015-Aug-09 13:33N 46°30' W 001°47'0 0.0
2015-Aug-09 12:33N 46°30' W 001°47'5 5.0
2015-Aug-09 11:33N 46°30' W 001°54'5 5.1
2015-Aug-09 10:33N 46°34' W 001°59'1 1.4
2015-Aug-09 09:33N 46°33' W 001°58'4 4.2
2015-Aug-09 08:33N 46°34' W 002°04'0 0.4
2015-Aug-09 07:33N 46°34' W 002°03'0 0.2
2015-Aug-09 06:33N 46°34' W 002°04'1 0.9
2015-Aug-09 05:33N 46°34' W 002°05'1 0.9
2015-Aug-09 04:33N 46°34' W 002°03'1 0.5
2015-Aug-09 03:34N 46°35' W 002°03'1 0.7
2015-Aug-09 02:33N 46°34' W 002°03'1 1.0
2015-Aug-09 01:33N 46°34' W 002°01'0 0.5
2015-Aug-09 00:33N 46°34' W 002°01'0 0.0
2015-Aug-08 23:33N 46°34' W 002°02'0 0.0
2015-Aug-08 22:33N 46°34' W 002°02'0 0.0
2015-Aug-08 21:33N 46°34' W 002°02'0 0.0
2015-Aug-08 20:33N 46°34' W 002°01'0 0.0
2015-Aug-08 19:33N 46°34' W 002°01'0 0.0
2015-Aug-08 18:33N 46°34' W 002°01'0 0.0
2015-Aug-08 17:33N 46°34' W 002°01'0 0.0
2015-Aug-08 16:33N 46°34' W 002°01'0 0.1
2015-Aug-08 15:33N 46°34' W 002°02'0 0.1
2015-Aug-08 14:33N 46°34' W 002°02'0 0.0
2015-Aug-08 13:33N 46°34' W 002°02'1 0.5
2015-Aug-08 12:33N 46°34' W 002°01'2 2.0
2015-Aug-08 11:33N 46°34' W 002°04'0 0.2
2015-Aug-08 10:33N 46°34' W 002°04'0 0.3
2015-Aug-08 09:32N 46°34' W 002°05'0 0.5
2015-Aug-08 08:33N 46°34' W 002°04'0 0.4
2015-Aug-08 07:33N 46°34' W 002°04'0 0.2
2015-Aug-08 06:30N 46°34' W 002°03'0 0.5
2015-Aug-08 05:33N 46°34' W 002°04'0 0.5
2015-Aug-08 04:33N 46°35' W 002°04'1 0.7
2015-Aug-08 03:33N 46°35' W 002°03'1 1.0
2015-Aug-08 02:33N 46°34' W 002°02'8 8.4
2015-Aug-08 01:33N 46°29' W 001°52'3 3.4
2015-Aug-08 00:33N 46°30' W 001°47'0 0.0
2015-Aug-07 23:33N 46°30' W 001°47'0 0.0
2015-Aug-07 22:33N 46°30' W 001°47'0 0.0
2015-Aug-07 21:33N 46°30' W 001°47'0 0.0
2015-Aug-07 20:33N 46°30' W 001°47'0 0.0
2015-Aug-07 19:33N 46°30' W 001°47'0 0.0
2015-Aug-07 18:33N 46°30' W 001°47'0 0.0
2015-Aug-07 17:33N 46°30' W 001°47'0 0.0
2015-Aug-07 16:33N 46°30' W 001°47'0 0.0
2015-Aug-07 15:33N 46°30' W 001°47'0 0.0
2015-Aug-07 14:33N 46°30' W 001°47'0 0.0
2015-Aug-07 13:33N 46°30' W 001°47'3 3.1
2015-Aug-07 12:33N 46°29' W 001°51'9 9.2
2015-Aug-07 11:34N 46°34' W 002°02'1 1.4
2015-Aug-07 10:33N 46°35' W 002°04'1 0.9
2015-Aug-07 09:33N 46°35' W 002°06'1 0.7
2015-Aug-07 08:33N 46°34' W 002°05'0 0.3
2015-Aug-07 07:33N 46°34' W 002°04'0 0.3
2015-Aug-07 06:33N 46°35' W 002°05'1 0.4
2015-Aug-07 04:32N 46°34' W 002°04'0 0.4
2015-Aug-07 03:33N 46°34' W 002°03'0 0.3
2015-Aug-07 02:33N 46°34' W 002°03'1 1.5
2015-Aug-07 01:33N 46°33' W 002°02'9 8.6
2015-Aug-07 00:33N 46°29' W 001°51'3 3.1
2015-Aug-06 23:33N 46°30' W 001°47'0 0.0
2015-Aug-06 22:33N 46°30' W 001°47'0 0.0
2015-Aug-06 21:33N 46°30' W 001°47'0 0.0
2015-Aug-06 20:33N 46°30' W 001°47'0 0.0
2015-Aug-06 19:33N 46°30' W 001°47'0 0.0
2015-Aug-06 18:33N 46°30' W 001°47'0 0.0
2015-Aug-06 17:33N 46°30' W 001°47'0 0.0
2015-Aug-06 16:33N 46°30' W 001°47'0 0.0
2015-Aug-06 15:33N 46°30' W 001°47'3 3.3
2015-Aug-06 14:33N 46°29' W 001°52'9 8.9
2015-Aug-06 13:33N 46°33' W 002°03'0 0.3
2015-Aug-06 12:33N 46°34' W 002°03'1 1.2
2015-Aug-06 11:34N 46°34' W 002°05'0 0.2
2015-Aug-06 10:33N 46°34' W 002°05'0 0.4
2015-Aug-06 09:33N 46°34' W 002°04'1 0.8
2015-Aug-06 08:33N 46°35' W 002°04'0 0.1
2015-Aug-06 07:33N 46°35' W 002°04'0 0.2
2015-Aug-06 06:33N 46°35' W 002°05'1 0.4
2015-Aug-06 04:23N 46°35' W 002°03'0 0.6
2015-Aug-06 03:33N 46°34' W 002°03'1 0.7
2015-Aug-06 02:32N 46°35' W 002°04'1 1.0
2015-Aug-06 01:33N 46°34' W 002°03'9 8.9
2015-Aug-06 00:33N 46°29' W 001°52'3 3.3
2015-Aug-05 23:33N 46°30' W 001°47'0 0.0
2015-Aug-05 22:33N 46°30' W 001°47'0 0.0
2015-Aug-05 21:33N 46°30' W 001°47'0 0.0
2015-Aug-05 20:33N 46°30' W 001°47'0 0.0
2015-Aug-05 19:33N 46°30' W 001°47'0 0.0
2015-Aug-05 18:33N 46°30' W 001°47'0 0.0
2015-Aug-05 17:33N 46°30' W 001°47'0 0.0
2015-Aug-05 16:33N 46°30' W 001°47'0 0.0
2015-Aug-05 15:33N 46°30' W 001°47'0 0.0
2015-Aug-05 14:33N 46°30' W 001°47'0 0.0
2015-Aug-05 13:33N 46°30' W 001°47'0 0.2
2015-Aug-05 12:33N 46°30' W 001°47'7 6.7
2015-Aug-05 11:33N 46°31' W 001°57'6 6.3
2015-Aug-05 10:33N 46°34' W 002°05'0 0.4
2015-Aug-05 09:33N 46°35' W 002°05'1 1.0
2015-Aug-05 08:33N 46°34' W 002°04'1 0.6
2015-Aug-05 07:33N 46°35' W 002°05'1 0.8
2015-Aug-05 06:33N 46°34' W 002°04'0 0.3
2015-Aug-05 05:33N 46°34' W 002°04'0 0.3
2015-Aug-05 04:33N 46°35' W 002°04'0 0.5
2015-Aug-05 03:32N 46°34' W 002°04'1 0.6
2015-Aug-05 02:33N 46°35' W 002°04'1 0.6
2015-Aug-05 01:33N 46°35' W 002°03'1 0.5
2015-Aug-05 00:29N 46°34' W 002°03'1 0.6
2015-Aug-04 23:33N 46°34' W 002°02'9 8.9
2015-Aug-04 22:33N 46°29' W 001°52'3 3.3
2015-Aug-04 21:33N 46°30' W 001°47'0 0.0
2015-Aug-04 20:33N 46°30' W 001°47'0 0.0
2015-Aug-04 19:33N 46°30' W 001°47'0 0.0
2015-Aug-04 18:33N 46°30' W 001°47'0 0.0
2015-Aug-04 17:33N 46°30' W 001°47'0 0.0
2015-Aug-04 16:33N 46°30' W 001°47'0 0.0
2015-Aug-04 15:33N 46°30' W 001°47'0 0.0
2015-Aug-04 14:33N 46°30' W 001°47'1 0.8
2015-Aug-04 13:33N 46°29' W 001°47'6 5.5
2015-Aug-04 12:33N 46°26' W 001°54'5 5.3
2015-Aug-04 11:33N 46°29' W 001°47'7 6.7
2015-Aug-04 10:33N 46°31' W 001°56'6 6.4
2015-Aug-04 09:33N 46°35' W 002°04'1 0.7
2015-Aug-04 08:33N 46°34' W 002°04'1 0.6
2015-Aug-04 07:31N 46°35' W 002°04'0 0.2
2015-Aug-04 06:32N 46°35' W 002°04'0 0.4
2015-Aug-04 05:32N 46°35' W 002°05'0 0.2
2015-Aug-04 04:33N 46°34' W 002°05'0 0.3
2015-Aug-04 03:33N 46°35' W 002°04'1 1.3
2015-Aug-04 02:33N 46°34' W 002°03'0 0.5
2015-Aug-04 01:33N 46°34' W 002°03'0 0.4
2015-Aug-04 00:34N 46°34' W 002°02'0 0.2
2015-Aug-03 23:33N 46°34' W 002°02'3 3.4
2015-Aug-03 22:33N 46°32' W 001°59'8 7.8
2015-Aug-03 21:33N 46°28' W 001°49'2 1.9
2015-Aug-03 20:33N 46°30' W 001°47'0 0.0
2015-Aug-03 19:33N 46°30' W 001°47'0 0.0
2015-Aug-03 18:33N 46°30' W 001°47'0 0.0
2015-Aug-03 17:33N 46°30' W 001°47'0 0.0
2015-Aug-03 16:33N 46°30' W 001°47'0 0.0
2015-Aug-03 15:33N 46°30' W 001°47'0 0.0
2015-Aug-03 14:33N 46°30' W 001°47'0 0.0
2015-Aug-03 13:33N 46°30' W 001°47'  

Dump ship's entire track history